Página principal
METAR-TAF:

METAR-TAF

Aeroportos :

Aeroporto Internacional de Xi'an Xianyang

Xian, China

latitude: 34-26N, longitude: 108-45E, altura: 479 m

Observação actual do tempo

O boletim foi feito há 16 minutos, às 13:00 UTC
Vento 2 kt com direcção variável
Temperatura 4°C
Humidade 87%
Pressão 1025 hPa
Visibilidade: 3000 m
neblina

METAR: ZLXY 201300Z VRB01MPS 3000 BR NSC 04/02 Q1025 NOSIG

Hora: 21:16 (13:16 UTC)

Previsão

O boletim foi feito há 4 horas e 12 minutos, às 09:04 UTC
Previsão válida de 20 às 12 UTC a 21 às 12 UTC
Vento 6 kt de oeste
Visibilidade: 3000 m
bruma

TAF: ZLXY 200904Z 2012/2112 26003MPS 3000 HZ NSC TX11/2107Z TNM03/23Z

Observações e previsões do tempo de mais de 4000 aeroportos (mensagens METAR e TAF).

As estações disponíveis são os pontos amarelos e vermelhos sobre o mapa.

Mova o rato sobre o mapa para ver o nome da estação.

Depois clique no ponto para visualizar as observações e previsões meteorológicas.

Para alterar o mapa : clique nos botões verdes com uma cruz preta para aumentar o zoom; no botão verde com uma pitada de zoom; ou nas setas verdes para mapas adjacentes.


METAR-TAF: